map of SCTB home
SCTB - Airport
Location
City:  Santiago, Metropolitana de Santiago, Chile
Name:Eulogio Sánchez Airport
ICAO:SCTB

Details
Type:Airport (Aerodrome, Airfield)
Use:Public/Civil
Latitude:33°27'25"S (-33.456943)
Longitude:70°32'50"W (-70.547221)
Elevation:2129 ft (649 m)
Variation:1.47°E (WMM2015 magnetic declination)
-0.16° annual change
Runways:1
Longest:3281 × 98 ft (1000 × 30 m), paved

Time
Time Zone:UTC-4 (DST-3)
Local Time:

Weather
METAR:SCTB 182300Z 20006KT CAVOK 28/02 Q1014

Related Locations
Nearby:
Farthest:AKA: 12373 mi / 19912 km
Ankang, 61, CN

Find:

   beyond  
but within

Other Information
Maps:
NOTAMs:
Links:
Sources:

  
  • flag of Chile
  • flag of Metropolitana de Santiago
  

Sectional Chart

Flight Planning
at skyvector.com

Satellite Image

Google Maps Satellite view

 

Copyright © 2004-2018 Karl L. Swartz. All rights reserved.
The Great Circle Mapper name and logo are trademarks of the Great Circle Mapper.
All other trademarks mentioned herein belong to their respective owners.
Please see credits for attibutions and further copyright information.

  Follow gcmap on Facebook Follow gcmap on Twitter Follow gcmap on Google+ GCmap on LinkedIn

hCard Microformat

Geo Microformat